createdAt,value
2022-11-12T00:04:55.981Z,86.39
2022-11-12T00:09:58.551Z,87.47
2022-11-12T00:15:02.668Z,89.42
2022-11-12T00:20:06.645Z,89.04
2022-11-12T00:25:09.898Z,88.33
2022-11-12T00:30:14.692Z,88.49
2022-11-12T00:35:17.696Z,89.45
2022-11-12T00:40:20.255Z,87.83
2022-11-12T00:45:24.778Z,87.67
2022-11-12T00:50:27.263Z,87.31
2022-11-12T00:55:29.854Z,87.71
2022-11-12T01:00:33.738Z,88.20
2022-11-12T01:05:36.312Z,88.16
2022-11-12T01:10:38.986Z,91.26
2022-11-12T01:15:43.712Z,89.30
2022-11-12T01:20:46.258Z,88.34
2022-11-12T01:25:48.829Z,89.00
2022-11-12T01:30:52.791Z,88.53
2022-11-12T01:35:59.553Z,88.50
2022-11-12T01:41:02.176Z,88.60
2022-11-12T01:46:09.378Z,90.32
2022-11-12T01:51:14.003Z,89.96
2022-11-12T01:56:18.267Z,89.36
2022-11-12T02:01:22.293Z,88.88
2022-11-12T02:06:25.932Z,88.20
2022-11-12T02:11:28.532Z,88.07
2022-11-12T02:16:35.452Z,87.31
2022-11-12T02:21:39.683Z,87.43
2022-11-12T02:26:45.833Z,88.09
2022-11-12T02:31:48.760Z,92.35
2022-11-12T02:36:52.632Z,94.06
2022-11-12T02:41:55.190Z,94.21
2022-11-12T02:46:57.815Z,94.04
2022-11-12T02:52:01.761Z,97.92
2022-11-12T02:57:04.549Z,92.33
2022-11-12T03:02:07.155Z,90.35
2022-11-12T03:07:11.115Z,90.17
2022-11-12T03:12:13.741Z,89.93
2022-11-12T03:17:16.281Z,91.06
2022-11-12T03:22:20.193Z,89.76
2022-11-12T03:27:22.750Z,90.06
2022-11-12T03:32:26.016Z,93.67
2022-11-12T03:37:30.081Z,91.73
2022-11-12T03:42:32.663Z,90.65
2022-11-12T03:47:35.277Z,91.01
2022-11-12T03:52:40.028Z,91.30
2022-11-12T03:57:43.037Z,94.28
2022-11-12T04:02:45.867Z,95.57
2022-11-12T04:08:14.661Z,93.91
2022-11-12T04:13:29.396Z,94.49
2022-11-12T04:18:49.406Z,91.63
2022-11-12T04:23:53.348Z,92.09
2022-11-12T04:29:13.670Z,91.69
2022-11-12T04:34:31.732Z,91.18
2022-11-12T04:39:36.223Z,91.65
2022-11-12T04:45:01.208Z,96.62
2022-11-12T04:50:05.593Z,99.48
2022-11-12T04:55:10.889Z,96.31
2022-11-12T05:00:14.560Z,93.13
2022-11-12T05:05:17.701Z,93.98
2022-11-12T05:10:21.635Z,92.94
2022-11-12T05:15:24.754Z,92.78
2022-11-12T05:20:27.461Z,92.10
2022-11-12T05:25:31.344Z,91.50
2022-11-12T05:30:33.931Z,94.50
2022-11-12T05:35:36.518Z,94.31
2022-11-12T05:40:45.502Z,93.32
2022-11-12T05:45:48.093Z,92.04
2022-11-12T05:51:12.050Z,91.44
2022-11-12T05:56:15.176Z,92.35
2022-11-12T06:01:17.783Z,91.37
2022-11-12T06:06:20.494Z,93.11
2022-11-12T06:11:24.454Z,92.00
2022-11-12T06:16:27.221Z,91.95
2022-11-12T06:21:29.914Z,92.24
2022-11-12T06:26:33.926Z,93.11
2022-11-12T06:31:36.695Z,91.91
2022-11-12T06:36:39.403Z,90.94
2022-11-12T06:41:43.321Z,91.36
2022-11-12T06:46:45.951Z,91.84
2022-11-12T06:51:51.560Z,91.26
2022-11-12T06:56:55.575Z,90.50
2022-11-12T07:01:58.306Z,90.27
2022-11-12T07:07:01.042Z,92.01
2022-11-12T07:12:05.551Z,93.13
2022-11-12T07:17:08.183Z,95.69
2022-11-12T07:22:10.821Z,97.21
2022-11-12T07:27:15.052Z,97.33
2022-11-12T07:32:17.653Z,96.47
2022-11-12T07:37:20.385Z,97.33
2022-11-12T07:42:24.359Z,96.39
2022-11-12T07:47:27.278Z,95.69
2022-11-12T07:52:29.903Z,92.17
2022-11-12T07:57:35.033Z,91.15
2022-11-12T08:02:37.675Z,91.38
2022-11-12T08:07:40.438Z,90.36
2022-11-12T08:12:44.495Z,87.98
2022-11-12T08:17:47.112Z,88.21
2022-11-12T08:22:49.875Z,85.33
2022-11-12T08:27:58.327Z,85.59
2022-11-12T08:33:03.274Z,84.41
2022-11-12T08:38:07.828Z,84.77
2022-11-12T08:43:12.972Z,84.98
2022-11-12T08:48:17.364Z,83.43
2022-11-12T08:53:20.189Z,82.01
2022-11-12T08:58:25.023Z,84.14
2022-11-12T09:03:27.903Z,82.21
2022-11-12T09:08:30.865Z,80.65
2022-11-12T09:13:35.719Z,81.25
2022-11-12T09:18:38.768Z,78.62
2022-11-12T09:23:41.702Z,79.00
2022-11-12T09:28:45.671Z,78.20
2022-11-12T09:33:48.253Z,76.32
2022-11-12T09:38:50.789Z,74.86
2022-11-12T09:44:01.039Z,74.73
2022-11-12T09:49:11.240Z,73.50
2022-11-12T09:54:21.883Z,74.53
2022-11-12T09:59:30.646Z,73.11
2022-11-12T10:04:55.407Z,70.90
2022-11-12T10:10:02.544Z,69.52
2022-11-12T10:15:46.415Z,69.47
2022-11-12T10:20:56.021Z,69.11
2022-11-12T10:26:02.348Z,67.47
2022-11-12T10:31:13.438Z,65.95
2022-11-12T10:36:26.253Z,64.88
2022-11-12T10:41:31.449Z,66.10
2022-11-12T10:46:37.451Z,68.14
2022-11-12T10:51:40.450Z,66.56
2022-11-12T10:56:43.078Z,69.92
2022-11-12T11:01:54.717Z,70.13
2022-11-12T11:07:06.706Z,69.31
2022-11-12T11:12:24.620Z,68.02
2022-11-12T11:17:28.631Z,66.90
2022-11-12T11:22:41.414Z,65.52
2022-11-12T11:27:54.757Z,64.37
2022-11-12T11:33:43.119Z,62.93
2022-11-12T11:38:56.287Z,67.46
2022-11-12T11:44:13.804Z,63.35
2022-11-12T11:49:39.324Z,63.11
2022-11-12T11:55:01.321Z,60.99
2022-11-12T12:00:13.911Z,59.42
2022-11-12T12:05:29.672Z,61.12
2022-11-12T12:16:26.653Z,57.74
2022-11-12T12:21:34.328Z,58.94
2022-11-12T12:26:42.452Z,59.90
2022-11-12T12:31:50.504Z,60.49
2022-11-12T12:37:03.135Z,60.54
2022-11-12T12:42:15.620Z,57.34
2022-11-12T12:47:20.833Z,56.75
2022-11-12T12:52:24.890Z,56.84
2022-11-12T12:57:33.492Z,59.00
2022-11-12T13:02:39.762Z,58.65
2022-11-12T13:07:46.725Z,58.20
2022-11-12T13:13:07.621Z,60.90
2022-11-12T13:18:16.901Z,60.42
2022-11-12T13:24:08.547Z,61.08
2022-11-12T13:29:52.717Z,62.29
2022-11-12T13:35:16.065Z,61.74
2022-11-12T13:40:26.518Z,61.06
2022-11-12T13:45:29.204Z,59.65
2022-11-12T13:50:37.808Z,59.11
2022-11-12T13:55:50.725Z,59.56
2022-11-12T14:00:54.748Z,61.40
2022-11-12T14:06:08.696Z,63.36
2022-11-12T14:11:32.186Z,64.55
2022-11-12T14:16:44.971Z,65.01
2022-11-12T14:22:01.143Z,66.90
2022-11-12T14:27:05.200Z,68.49
2022-11-12T14:32:10.506Z,70.50
2022-11-12T14:37:38.211Z,70.62
2022-11-12T14:42:46.338Z,74.98
2022-11-12T14:47:53.931Z,79.54
2022-11-12T14:53:01.466Z,81.83
2022-11-12T14:58:06.514Z,84.03
2022-11-12T15:03:14.309Z,79.54
2022-11-12T15:08:30.531Z,80.65
2022-11-12T15:13:42.547Z,79.56
2022-11-12T15:18:46.451Z,80.75
2022-11-12T15:23:50.337Z,82.18
2022-11-12T15:29:02.122Z,83.85
2022-11-12T15:34:26.958Z,91.66
2022-11-12T15:39:30.062Z,89.14
2022-11-12T15:44:37.655Z,96.25
2022-11-12T15:49:48.552Z,94.48
2022-11-12T15:54:51.642Z,95.24
2022-11-12T16:00:07.727Z,95.69
2022-11-12T16:05:14.171Z,96.06
2022-11-12T16:10:18.668Z,100.00
2022-11-12T16:15:25.527Z,100.00
2022-11-12T16:20:31.755Z,100.00
2022-11-12T16:25:36.877Z,98.52
2022-11-12T16:30:40.971Z,100.00
2022-11-12T16:35:43.653Z,99.24
2022-11-12T16:40:47.002Z,100.00
2022-11-12T16:45:51.807Z,100.00
2022-11-12T16:50:55.237Z,97.11
2022-11-12T16:55:58.350Z,100.00
2022-11-12T17:01:03.093Z,100.00
2022-11-12T17:06:06.699Z,100.00
2022-11-12T17:11:10.238Z,100.00
2022-11-12T17:16:14.491Z,100.00
2022-11-12T17:21:18.968Z,100.00
2022-11-12T17:26:22.861Z,100.00
2022-11-12T17:31:27.172Z,95.95
2022-11-12T17:36:30.007Z,98.81
2022-11-12T17:41:32.602Z,100.00
2022-11-12T17:46:37.403Z,100.00
2022-11-12T17:51:39.926Z,100.00
2022-11-12T17:56:42.589Z,100.00
2022-11-12T18:01:46.468Z,100.00
2022-11-12T18:06:49.093Z,100.00
2022-11-12T18:11:54.159Z,99.50
2022-11-12T18:17:01.209Z,99.19
2022-11-12T18:22:03.777Z,95.85
2022-11-12T18:27:06.329Z,94.27
2022-11-12T18:32:10.208Z,92.21
2022-11-12T18:37:12.859Z,97.57
2022-11-12T18:42:18.019Z,100.00
2022-11-12T18:47:22.023Z,98.68
2022-11-12T18:52:24.583Z,98.23
2022-11-12T18:57:27.142Z,96.00
2022-11-12T19:02:31.307Z,100.00
2022-11-12T19:07:33.862Z,100.00
2022-11-12T19:12:36.937Z,100.00
2022-11-12T19:17:40.896Z,100.00
2022-11-12T19:22:43.478Z,100.00
2022-11-12T19:27:46.258Z,100.00
2022-11-12T19:32:50.225Z,99.93
2022-11-12T19:37:52.773Z,98.68
2022-11-12T19:42:55.331Z,99.59
2022-11-12T19:47:59.356Z,95.36
2022-11-12T19:53:01.890Z,94.16
2022-11-12T19:58:04.437Z,99.00
2022-11-12T20:03:08.459Z,100.00
2022-11-12T20:08:11.037Z,100.00
2022-11-12T20:13:13.680Z,97.96
2022-11-12T20:18:17.871Z,95.88
2022-11-12T20:23:20.459Z,99.06
2022-11-12T20:28:23.028Z,96.50
2022-11-12T20:33:27.434Z,94.47
2022-11-12T20:38:30.582Z,93.07
2022-11-12T20:43:33.807Z,92.81
2022-11-12T20:48:42.840Z,91.97
2022-11-12T20:53:47.120Z,93.26
2022-11-12T20:58:50.752Z,91.30
2022-11-12T21:03:54.767Z,90.72
2022-11-12T21:09:00.153Z,90.51
2022-11-12T21:14:03.806Z,91.03
2022-11-12T21:19:08.141Z,92.51
2022-11-12T21:24:12.838Z,91.85
2022-11-12T21:29:18.749Z,90.18
2022-11-12T21:34:23.006Z,90.49
2022-11-12T21:39:25.560Z,90.94
2022-11-12T21:44:28.164Z,89.87
2022-11-12T21:49:32.086Z,93.97
2022-11-12T21:54:35.399Z,98.30
2022-11-12T21:59:38.011Z,96.16
2022-11-12T22:04:42.315Z,94.37
2022-11-12T22:09:44.870Z,94.17
2022-11-12T22:14:47.406Z,99.56
2022-11-12T22:19:51.426Z,99.70
2022-11-12T22:24:54.495Z,97.25
2022-11-12T22:29:57.056Z,94.48
2022-11-12T22:35:01.042Z,92.73
2022-11-12T22:40:04.692Z,93.89
2022-11-12T22:45:10.867Z,93.81
2022-11-12T22:50:15.329Z,93.05
2022-11-12T22:55:18.142Z,92.14
2022-11-12T23:00:30.615Z,91.21
2022-11-12T23:05:34.524Z,90.73
2022-11-12T23:10:40.462Z,89.84
2022-11-12T23:15:47.719Z,90.96
2022-11-12T23:20:51.671Z,89.74
2022-11-12T23:25:54.469Z,90.55
2022-11-12T23:30:57.048Z,90.42
2022-11-12T23:36:06.842Z,92.75
2022-11-12T23:41:11.668Z,93.15
2022-11-12T23:46:14.348Z,91.56
2022-11-12T23:51:20.264Z,90.85
2022-11-12T23:56:22.822Z,91.25
